createdAt,value
2023-03-29T00:02:07.570Z,25.40
2023-03-29T00:04:35.658Z,25.40
2023-03-29T00:07:05.517Z,25.40
2023-03-29T00:09:33.504Z,25.30
2023-03-29T00:12:01.606Z,25.20
2023-03-29T00:14:31.521Z,25.20
2023-03-29T00:16:59.501Z,25.10
2023-03-29T00:19:27.260Z,25.20
2023-03-29T00:21:57.056Z,25.50
2023-03-29T00:24:24.664Z,25.60
2023-03-29T00:26:52.410Z,25.90
2023-03-29T00:29:22.740Z,25.90
2023-03-29T00:31:50.386Z,25.70
2023-03-29T00:34:19.023Z,25.80
2023-03-29T00:36:48.816Z,25.80
2023-03-29T00:39:16.729Z,25.80
2023-03-29T00:41:44.589Z,26.10
2023-03-29T00:44:12.870Z,26.30
2023-03-29T00:46:40.522Z,26.40
2023-03-29T00:49:08.472Z,26.60
2023-03-29T00:51:41.242Z,26.50
2023-03-29T00:54:08.913Z,26.50
2023-03-29T00:56:36.589Z,26.60
2023-03-29T00:59:06.568Z,26.70
2023-03-29T01:01:34.512Z,26.60
2023-03-29T01:04:02.181Z,26.70
2023-03-29T01:06:32.135Z,26.90
2023-03-29T01:08:59.910Z,27.10
2023-03-29T01:11:27.454Z,27.10
2023-03-29T01:13:55.352Z,27.10
2023-03-29T01:16:23.007Z,27.30
2023-03-29T01:18:50.627Z,27.40
2023-03-29T01:21:20.905Z,27.50
2023-03-29T01:23:48.644Z,27.50
2023-03-29T01:26:16.315Z,27.60
2023-03-29T01:28:46.127Z,27.60
2023-03-29T01:31:13.790Z,27.60
2023-03-29T01:33:41.652Z,27.60
2023-03-29T01:36:11.449Z,27.70
2023-03-29T01:38:39.313Z,27.70
2023-03-29T01:41:07.215Z,27.70
2023-03-29T01:43:37.122Z,27.80
2023-03-29T01:46:04.717Z,27.80
2023-03-29T01:48:32.360Z,28.00
2023-03-29T01:51:02.398Z,28.10
2023-03-29T01:53:30.266Z,28.20
2023-03-29T01:55:57.791Z,28.30
2023-03-29T01:58:27.620Z,28.50
2023-03-29T02:00:55.622Z,28.50
2023-03-29T02:03:23.356Z,28.60
2023-03-29T02:05:53.570Z,28.60
2023-03-29T02:08:21.258Z,28.70
2023-03-29T02:10:48.930Z,28.70
2023-03-29T02:13:16.568Z,28.80
2023-03-29T02:15:45.154Z,28.90
2023-03-29T02:18:13.172Z,28.90
2023-03-29T02:20:41.883Z,29.00
2023-03-29T02:23:09.544Z,29.00
2023-03-29T02:25:37.331Z,29.00
2023-03-29T02:28:10.054Z,28.90
2023-03-29T02:30:37.677Z,28.80
2023-03-29T02:33:05.653Z,28.70
2023-03-29T02:35:35.636Z,28.70
2023-03-29T02:38:03.376Z,28.70
2023-03-29T02:40:31.088Z,28.80
2023-03-29T02:43:00.865Z,28.60
2023-03-29T02:45:28.655Z,28.50
2023-03-29T02:47:56.987Z,28.40
2023-03-29T02:50:25.861Z,28.30
2023-03-29T02:52:53.682Z,28.30
2023-03-29T02:55:21.325Z,28.40
2023-03-29T02:57:51.138Z,28.40
2023-03-29T03:00:18.955Z,28.30
2023-03-29T03:02:46.592Z,28.30
2023-03-29T03:05:16.401Z,28.20
2023-03-29T03:07:43.937Z,28.10
2023-03-29T03:10:11.494Z,28.00
2023-03-29T03:12:41.314Z,28.10
2023-03-29T03:15:09.118Z,28.20
2023-03-29T03:17:36.938Z,28.40
2023-03-29T03:20:06.671Z,28.50
2023-03-29T03:22:34.903Z,28.60
2023-03-29T03:25:02.644Z,28.60
2023-03-29T03:27:32.556Z,28.50
2023-03-29T03:30:00.175Z,28.40
2023-03-29T03:32:27.775Z,28.30
2023-03-29T03:34:57.451Z,28.20
2023-03-29T03:37:25.250Z,28.10
2023-03-29T03:39:52.759Z,28.30
2023-03-29T03:42:22.551Z,28.40
2023-03-29T03:44:50.384Z,28.40
2023-03-29T03:47:18.002Z,28.50
2023-03-29T03:49:48.015Z,28.50
2023-03-29T03:52:18.904Z,28.50
2023-03-29T03:54:46.549Z,28.50
2023-03-29T03:57:14.310Z,28.60
2023-03-29T03:59:42.319Z,28.70
2023-03-29T04:02:10.173Z,29.00
2023-03-29T04:04:40.028Z,28.90
2023-03-29T04:07:07.849Z,29.00
2023-03-29T04:09:35.679Z,29.30
2023-03-29T04:12:04.177Z,29.40
2023-03-29T04:14:32.722Z,29.60
2023-03-29T04:17:00.535Z,29.60
2023-03-29T04:19:30.725Z,29.80
2023-03-29T04:21:58.504Z,29.80
2023-03-29T04:24:26.080Z,29.90
2023-03-29T04:26:55.657Z,30.00
2023-03-29T04:29:23.652Z,29.90
2023-03-29T04:31:51.296Z,29.70
2023-03-29T04:34:21.051Z,29.90
2023-03-29T04:36:48.777Z,30.10
2023-03-29T04:39:16.271Z,30.20
2023-03-29T04:41:46.176Z,30.40
2023-03-29T04:44:13.895Z,30.30
2023-03-29T04:46:41.550Z,30.10
2023-03-29T04:49:11.541Z,30.00
2023-03-29T04:51:39.386Z,30.00
2023-03-29T04:54:07.220Z,30.20
2023-03-29T04:56:37.159Z,30.30
2023-03-29T04:59:04.896Z,30.40
2023-03-29T05:01:32.454Z,30.50
2023-03-29T05:04:02.496Z,30.60
2023-03-29T05:06:30.217Z,30.40
2023-03-29T05:08:57.863Z,30.40
2023-03-29T05:11:29.635Z,30.50
2023-03-29T05:13:57.381Z,30.50
2023-03-29T05:16:25.010Z,30.50
2023-03-29T05:18:54.544Z,30.60
2023-03-29T05:21:22.459Z,30.80
2023-03-29T05:23:50.017Z,30.90
2023-03-29T05:26:19.516Z,30.90
2023-03-29T05:28:47.275Z,30.80
2023-03-29T05:31:16.782Z,31.00
2023-03-29T05:33:46.752Z,31.20
2023-03-29T05:36:14.395Z,31.40
2023-03-29T05:38:42.016Z,31.40
2023-03-29T05:41:11.513Z,31.50
2023-03-29T05:43:39.164Z,31.30
2023-03-29T05:46:11.045Z,31.20
2023-03-29T05:48:41.255Z,31.10
2023-03-29T05:51:08.844Z,31.10
2023-03-29T05:53:36.405Z,31.20
2023-03-29T05:56:06.504Z,31.40
2023-03-29T05:58:34.161Z,31.10
2023-03-29T06:01:02.135Z,31.00
2023-03-29T06:03:30.322Z,31.00
2023-03-29T06:05:58.015Z,31.10
2023-03-29T06:08:25.617Z,31.10
2023-03-29T06:10:55.648Z,31.20
2023-03-29T06:13:23.752Z,31.00
2023-03-29T06:15:51.476Z,30.80
2023-03-29T06:18:21.618Z,30.60
2023-03-29T06:20:49.209Z,30.50
2023-03-29T06:23:16.794Z,30.40
2023-03-29T06:25:47.104Z,30.40
2023-03-29T06:28:14.667Z,30.50
2023-03-29T06:30:42.314Z,30.50
2023-03-29T06:33:12.452Z,30.80
2023-03-29T06:35:40.085Z,31.00
2023-03-29T06:38:07.721Z,31.00
2023-03-29T06:40:37.888Z,31.00
2023-03-29T06:43:05.536Z,30.70
2023-03-29T06:45:34.114Z,30.50
2023-03-29T06:48:04.222Z,30.40
2023-03-29T06:50:32.120Z,30.40
2023-03-29T06:53:02.482Z,30.40
2023-03-29T06:55:32.449Z,30.30
2023-03-29T06:58:01.803Z,30.30
2023-03-29T07:00:30.421Z,30.20
2023-03-29T07:03:00.372Z,30.20
2023-03-29T07:05:28.095Z,30.20
2023-03-29T07:07:55.711Z,30.20
2023-03-29T07:10:25.573Z,30.20
2023-03-29T07:12:53.222Z,30.20
2023-03-29T07:15:20.828Z,30.20
2023-03-29T07:17:48.734Z,30.20
2023-03-29T07:20:16.532Z,30.20
2023-03-29T07:22:46.264Z,30.20
2023-03-29T07:25:16.330Z,30.20
2023-03-29T07:27:43.962Z,30.20
2023-03-29T07:30:12.027Z,30.20
2023-03-29T07:32:40.351Z,30.20
2023-03-29T07:35:07.919Z,30.20
2023-03-29T07:37:35.487Z,30.20
2023-03-29T07:40:05.331Z,30.20
2023-03-29T07:42:34.238Z,30.20
2023-03-29T07:45:01.923Z,30.20
2023-03-29T07:47:32.556Z,30.30
2023-03-29T07:50:00.297Z,30.30
2023-03-29T07:52:27.986Z,30.20
2023-03-29T07:54:58.156Z,30.10
2023-03-29T07:57:26.369Z,30.10
2023-03-29T07:59:54.840Z,30.10
2023-03-29T08:02:24.859Z,30.10
2023-03-29T08:04:52.631Z,30.10
2023-03-29T08:07:20.527Z,30.10
2023-03-29T08:09:50.520Z,30.10
2023-03-29T08:12:18.075Z,30.20
2023-03-29T08:14:45.771Z,30.40
2023-03-29T08:17:15.763Z,30.60
2023-03-29T08:19:50.832Z,30.80
2023-03-29T08:22:19.623Z,30.90
2023-03-29T08:24:47.233Z,31.10
2023-03-29T08:27:14.862Z,31.20
2023-03-29T08:29:44.083Z,31.10
2023-03-29T08:32:11.709Z,31.10
2023-03-29T08:34:39.257Z,31.10
2023-03-29T08:37:09.396Z,31.10
2023-03-29T08:39:37.031Z,31.10
2023-03-29T08:42:04.629Z,31.20
2023-03-29T08:44:32.880Z,31.40
2023-03-29T08:47:00.810Z,31.40
2023-03-29T08:49:28.515Z,31.30
2023-03-29T08:51:58.794Z,31.30
2023-03-29T08:54:26.437Z,31.40
2023-03-29T08:56:54.264Z,31.40
2023-03-29T08:59:24.369Z,31.30
2023-03-29T09:01:52.158Z,31.20
2023-03-29T09:04:19.893Z,31.20
2023-03-29T09:06:47.907Z,31.20
2023-03-29T09:09:15.533Z,31.20
2023-03-29T09:11:43.194Z,31.20
2023-03-29T09:14:13.386Z,31.20
2023-03-29T09:16:40.973Z,31.00
2023-03-29T09:19:08.555Z,30.90
2023-03-29T09:21:36.586Z,30.80
2023-03-29T09:24:04.181Z,30.90
2023-03-29T09:26:31.838Z,30.90
2023-03-29T09:28:59.781Z,31.00
2023-03-29T09:31:27.354Z,31.00
2023-03-29T09:33:54.937Z,31.00
2023-03-29T09:36:25.197Z,30.90
2023-03-29T09:38:52.778Z,30.80
2023-03-29T09:41:20.365Z,30.80
2023-03-29T09:43:51.144Z,30.90
2023-03-29T09:46:18.791Z,30.90
2023-03-29T09:48:46.393Z,31.10
2023-03-29T09:51:16.577Z,31.20
2023-03-29T09:53:46.871Z,31.30
2023-03-29T09:56:14.570Z,31.30
2023-03-29T09:58:44.585Z,31.40
2023-03-29T10:01:12.129Z,31.40
2023-03-29T10:03:39.767Z,31.40
2023-03-29T10:06:09.663Z,31.30
2023-03-29T10:08:37.221Z,31.10
2023-03-29T10:11:05.014Z,31.00
2023-03-29T10:13:34.596Z,30.90
2023-03-29T10:16:02.406Z,30.80
2023-03-29T10:18:30.592Z,30.80
2023-03-29T10:21:00.658Z,30.70
2023-03-29T10:23:28.372Z,30.70
2023-03-29T10:25:56.032Z,30.60
2023-03-29T10:28:26.029Z,30.60
2023-03-29T10:30:53.593Z,30.60
2023-03-29T10:33:21.479Z,30.70
2023-03-29T10:35:51.595Z,30.70
2023-03-29T10:38:19.238Z,30.60
2023-03-29T10:40:47.154Z,30.50
2023-03-29T10:43:17.444Z,30.50
2023-03-29T10:45:45.627Z,30.30
2023-03-29T10:48:13.633Z,30.20
2023-03-29T10:50:45.533Z,30.10
2023-03-29T10:53:13.238Z,30.10
2023-03-29T10:55:40.980Z,30.10
2023-03-29T10:58:10.973Z,30.10
2023-03-29T11:00:38.597Z,30.10
2023-03-29T11:03:06.892Z,30.10
2023-03-29T11:05:36.948Z,30.00
2023-03-29T11:08:04.594Z,29.90
2023-03-29T11:10:32.410Z,29.90
2023-03-29T11:13:02.399Z,29.80
2023-03-29T11:15:30.064Z,29.80
2023-03-29T11:17:57.913Z,29.80
2023-03-29T11:20:27.906Z,29.80
2023-03-29T11:22:55.456Z,29.70
2023-03-29T11:25:23.264Z,29.60
2023-03-29T11:27:53.155Z,29.60
2023-03-29T11:30:20.750Z,29.50
2023-03-29T11:32:48.684Z,29.40
2023-03-29T11:35:18.705Z,29.50
2023-03-29T11:37:46.339Z,29.40
2023-03-29T11:40:13.952Z,29.40
2023-03-29T11:42:43.815Z,29.30
2023-03-29T11:45:11.524Z,29.40
2023-03-29T11:47:39.412Z,29.30
2023-03-29T11:50:11.067Z,29.30
2023-03-29T11:52:38.620Z,29.40
2023-03-29T11:55:06.244Z,29.30
2023-03-29T11:57:36.246Z,29.30
2023-03-29T12:00:03.906Z,29.30
2023-03-29T12:02:31.830Z,29.20
2023-03-29T12:05:01.830Z,29.10
2023-03-29T12:07:29.461Z,29.10
2023-03-29T12:09:57.282Z,29.10
2023-03-29T12:12:27.433Z,29.10
2023-03-29T12:14:55.001Z,29.10
2023-03-29T12:17:22.794Z,29.10
2023-03-29T12:19:52.890Z,29.10
2023-03-29T12:22:20.550Z,29.10
2023-03-29T12:24:48.485Z,29.00
2023-03-29T12:27:18.558Z,29.00
2023-03-29T12:29:46.138Z,29.00
2023-03-29T12:32:14.071Z,28.90
2023-03-29T12:34:44.421Z,28.90
2023-03-29T12:37:12.000Z,28.80
2023-03-29T12:39:39.690Z,28.70
2023-03-29T12:42:09.535Z,28.70
2023-03-29T12:44:37.093Z,28.80
2023-03-29T12:47:04.783Z,28.80
2023-03-29T12:49:32.895Z,28.60
2023-03-29T12:52:00.432Z,28.70
2023-03-29T12:54:28.394Z,28.70
2023-03-29T12:56:56.355Z,28.70
2023-03-29T12:59:23.989Z,28.60
2023-03-29T13:01:51.821Z,28.60
2023-03-29T13:04:22.001Z,28.60
2023-03-29T13:06:50.553Z,28.60
2023-03-29T13:09:18.859Z,28.60
2023-03-29T13:11:48.905Z,28.60
2023-03-29T13:14:16.474Z,28.60
2023-03-29T13:16:44.269Z,28.50
2023-03-29T13:19:11.934Z,28.40
2023-03-29T13:21:39.550Z,28.40
2023-03-29T13:24:07.205Z,28.40
2023-03-29T13:26:37.381Z,28.30
2023-03-29T13:29:04.988Z,28.20
2023-03-29T13:31:33.577Z,28.20
2023-03-29T13:34:01.474Z,28.20
2023-03-29T13:36:30.704Z,28.10
2023-03-29T13:38:59.476Z,28.20
2023-03-29T13:41:29.617Z,28.10
2023-03-29T13:43:57.206Z,28.20
2023-03-29T13:46:25.015Z,28.20
2023-03-29T13:48:54.624Z,28.20
2023-03-29T13:51:22.314Z,28.10
2023-03-29T13:53:50.344Z,28.00
2023-03-29T13:56:20.618Z,28.00
2023-03-29T13:58:48.233Z,28.00
2023-03-29T14:01:15.920Z,27.90
2023-03-29T14:03:45.881Z,27.90
2023-03-29T14:06:13.449Z,27.90
2023-03-29T14:08:41.220Z,27.80
2023-03-29T14:11:11.370Z,27.80
2023-03-29T14:13:39.069Z,27.80
2023-03-29T14:16:07.111Z,27.80
2023-03-29T14:18:35.510Z,27.80
2023-03-29T14:21:03.055Z,27.80
2023-03-29T14:23:30.869Z,27.80
2023-03-29T14:26:01.164Z,27.70
2023-03-29T14:28:28.880Z,27.70
2023-03-29T14:30:56.629Z,27.70
2023-03-29T14:33:26.655Z,27.80
2023-03-29T14:35:54.304Z,27.60
2023-03-29T14:38:21.894Z,27.60
2023-03-29T14:40:50.471Z,27.50
2023-03-29T14:43:18.094Z,27.60
2023-03-29T14:45:46.607Z,27.50
2023-03-29T14:48:17.091Z,27.50
2023-03-29T14:50:45.276Z,27.50
2023-03-29T14:53:12.881Z,27.50
2023-03-29T14:55:43.088Z,27.50
2023-03-29T14:58:11.301Z,27.50
2023-03-29T15:00:39.233Z,27.40
2023-03-29T15:03:09.326Z,27.40
2023-03-29T15:05:37.303Z,27.40
2023-03-29T15:08:05.236Z,27.40
2023-03-29T15:10:35.477Z,27.40
2023-03-29T15:13:03.044Z,27.30
2023-03-29T15:15:30.903Z,27.30
2023-03-29T15:18:00.851Z,27.30
2023-03-29T15:20:28.496Z,27.30
2023-03-29T15:22:56.273Z,27.20
2023-03-29T15:25:26.329Z,27.10
2023-03-29T15:27:54.729Z,27.20
2023-03-29T15:30:22.763Z,27.20
2023-03-29T15:32:50.445Z,27.20
2023-03-29T15:35:18.159Z,27.20
2023-03-29T15:37:45.780Z,27.20
2023-03-29T15:40:16.436Z,27.20
2023-03-29T15:42:44.133Z,27.20
2023-03-29T15:45:11.727Z,27.20
2023-03-29T15:47:39.425Z,27.10
2023-03-29T15:50:07.034Z,27.10
2023-03-29T15:52:34.685Z,27.10
2023-03-29T15:55:04.718Z,27.00
2023-03-29T15:57:32.702Z,26.80
2023-03-29T16:00:00.564Z,26.90
2023-03-29T16:02:30.654Z,27.00
2023-03-29T16:04:58.228Z,26.90
2023-03-29T16:07:25.939Z,26.90
2023-03-29T16:09:55.706Z,26.90
2023-03-29T16:12:23.318Z,26.90
2023-03-29T16:14:51.173Z,26.90
2023-03-29T16:17:21.044Z,26.90
2023-03-29T16:19:48.701Z,26.80
2023-03-29T16:22:16.533Z,26.90
2023-03-29T16:24:46.466Z,26.80
2023-03-29T16:27:14.064Z,26.90
2023-03-29T16:29:41.850Z,26.90
2023-03-29T16:32:11.980Z,26.80
2023-03-29T16:34:39.546Z,26.70
2023-03-29T16:37:07.225Z,26.70
2023-03-29T16:39:37.175Z,26.60
2023-03-29T16:42:04.945Z,26.60
2023-03-29T16:44:32.655Z,26.60
2023-03-29T16:47:02.427Z,26.60
2023-03-29T16:49:29.951Z,26.70
2023-03-29T16:51:57.584Z,26.70
2023-03-29T16:54:25.304Z,26.60
2023-03-29T16:56:52.940Z,26.60
2023-03-29T16:59:20.733Z,26.60
2023-03-29T17:01:48.741Z,26.60
2023-03-29T17:04:16.426Z,26.60
2023-03-29T17:06:44.620Z,26.50
2023-03-29T17:09:15.973Z,26.60
2023-03-29T17:11:43.724Z,26.60
2023-03-29T17:14:11.425Z,26.60
2023-03-29T17:16:41.375Z,26.70
2023-03-29T17:19:08.978Z,26.50
2023-03-29T17:21:36.796Z,26.50
2023-03-29T17:24:06.590Z,26.60
2023-03-29T17:26:34.197Z,26.40
2023-03-29T17:29:01.879Z,26.50
2023-03-29T17:31:31.706Z,26.40
2023-03-29T17:33:59.386Z,26.40
2023-03-29T17:36:27.418Z,26.30
2023-03-29T17:38:57.260Z,26.30
2023-03-29T17:41:24.895Z,26.30
2023-03-29T17:43:52.721Z,26.30
2023-03-29T17:46:22.632Z,26.30
2023-03-29T17:48:50.367Z,26.30
2023-03-29T17:51:18.260Z,26.30
2023-03-29T17:53:46.009Z,26.30
2023-03-29T17:56:13.561Z,26.30
2023-03-29T17:58:41.425Z,26.30
2023-03-29T18:01:11.317Z,26.30
2023-03-29T18:03:39.180Z,26.30
2023-03-29T18:06:07.487Z,26.40
2023-03-29T18:08:37.572Z,26.30
2023-03-29T18:11:09.664Z,26.30
2023-03-29T18:13:40.545Z,26.20
2023-03-29T18:16:10.957Z,26.20
2023-03-29T18:18:38.668Z,26.30
2023-03-29T18:21:08.636Z,26.20
2023-03-29T18:23:37.142Z,26.20
2023-03-29T18:26:04.989Z,26.20
2023-03-29T18:28:35.258Z,26.20
2023-03-29T18:31:03.015Z,26.10
2023-03-29T18:33:30.795Z,26.10
2023-03-29T18:36:00.645Z,26.20
2023-03-29T18:38:28.490Z,26.20
2023-03-29T18:40:56.066Z,26.10
2023-03-29T18:43:25.855Z,26.10
2023-03-29T18:45:53.721Z,25.90
2023-03-29T18:48:21.318Z,26.10
2023-03-29T18:50:51.118Z,26.10
2023-03-29T18:53:18.692Z,26.00
2023-03-29T18:55:46.222Z,26.10
2023-03-29T18:58:16.040Z,26.10
2023-03-29T19:00:43.705Z,26.10
2023-03-29T19:03:11.479Z,26.10
2023-03-29T19:05:41.391Z,26.00
2023-03-29T19:08:09.169Z,26.00
2023-03-29T19:10:36.747Z,26.00
2023-03-29T19:13:06.557Z,26.00
2023-03-29T19:15:34.367Z,25.90
2023-03-29T19:18:02.022Z,26.00
2023-03-29T19:20:31.838Z,26.00
2023-03-29T19:22:59.409Z,26.00
2023-03-29T19:25:27.002Z,26.00
2023-03-29T19:27:56.721Z,25.90
2023-03-29T19:30:24.490Z,25.90
2023-03-29T19:32:52.076Z,26.00
2023-03-29T19:35:22.189Z,25.90
2023-03-29T19:37:49.961Z,25.90
2023-03-29T19:40:17.631Z,25.80
2023-03-29T19:42:47.418Z,25.80
2023-03-29T19:45:15.533Z,25.80
2023-03-29T19:47:43.192Z,25.80
2023-03-29T19:50:13.064Z,25.80
2023-03-29T19:52:40.822Z,25.80
2023-03-29T19:55:08.382Z,25.80
2023-03-29T19:57:38.179Z,25.70
2023-03-29T20:00:05.825Z,25.80
2023-03-29T20:02:33.573Z,25.80
2023-03-29T20:05:03.384Z,25.80
2023-03-29T20:07:31.662Z,25.60
2023-03-29T20:10:00.678Z,25.60
2023-03-29T20:12:30.585Z,25.60
2023-03-29T20:14:58.379Z,25.70
2023-03-29T20:17:26.063Z,25.90
2023-03-29T20:19:53.914Z,25.90
2023-03-29T20:22:27.680Z,25.90
2023-03-29T20:25:05.874Z,25.90
2023-03-29T20:27:33.677Z,25.90
2023-03-29T20:30:01.486Z,25.80
2023-03-29T20:32:31.289Z,25.80
2023-03-29T20:34:59.105Z,25.90
2023-03-29T20:37:39.188Z,25.80
2023-03-29T20:40:08.230Z,25.70
2023-03-29T20:42:35.785Z,25.80
2023-03-29T20:45:05.565Z,25.80
2023-03-29T20:47:33.294Z,25.70
2023-03-29T20:50:00.891Z,25.60
2023-03-29T20:52:30.740Z,25.80
2023-03-29T20:54:58.753Z,25.80
2023-03-29T20:57:27.544Z,25.70
2023-03-29T20:59:58.387Z,25.70
2023-03-29T21:02:26.228Z,25.70
2023-03-29T21:04:53.963Z,25.70
2023-03-29T21:07:23.727Z,25.70
2023-03-29T21:09:51.381Z,25.60
2023-03-29T21:12:18.941Z,25.70
2023-03-29T21:14:48.674Z,25.70
2023-03-29T21:17:16.606Z,25.60
2023-03-29T21:19:44.316Z,25.60
2023-03-29T21:22:14.137Z,25.70
2023-03-29T21:24:41.846Z,25.70
2023-03-29T21:27:09.454Z,25.70
2023-03-29T21:29:39.272Z,25.70
2023-03-29T21:32:06.952Z,25.70
2023-03-29T21:34:35.328Z,25.60
2023-03-29T21:37:06.747Z,25.60
2023-03-29T21:39:34.897Z,25.60
2023-03-29T21:42:02.698Z,25.60
2023-03-29T21:44:34.363Z,25.50
2023-03-29T21:47:04.488Z,25.60
2023-03-29T21:49:32.373Z,25.60
2023-03-29T21:52:02.484Z,25.60
2023-03-29T21:54:30.436Z,25.50
2023-03-29T21:56:58.302Z,25.50
2023-03-29T21:59:28.188Z,25.50
2023-03-29T22:01:56.338Z,25.50
2023-03-29T22:04:35.906Z,25.50
2023-03-29T22:07:06.991Z,25.50
2023-03-29T22:09:34.678Z,25.50
2023-03-29T22:12:02.470Z,25.50
2023-03-29T22:14:32.475Z,25.50
2023-03-29T22:16:59.991Z,25.50
2023-03-29T22:19:27.690Z,25.50
2023-03-29T22:21:57.750Z,25.50
2023-03-29T22:24:25.304Z,25.50
2023-03-29T22:26:52.898Z,25.50
2023-03-29T22:29:21.884Z,25.50
2023-03-29T22:31:49.505Z,25.50
2023-03-29T22:34:17.096Z,25.60
2023-03-29T22:36:46.915Z,25.60
2023-03-29T22:39:14.521Z,25.60
2023-03-29T22:41:42.107Z,25.60
2023-03-29T22:44:12.024Z,25.60
2023-03-29T22:46:40.237Z,25.60
2023-03-29T22:49:07.859Z,25.60
2023-03-29T22:51:37.678Z,25.60
2023-03-29T22:54:05.262Z,25.60
2023-03-29T22:56:33.429Z,25.60
2023-03-29T22:59:03.407Z,25.50
2023-03-29T23:01:31.081Z,25.60
2023-03-29T23:03:58.740Z,25.50
2023-03-29T23:06:28.719Z,25.50
2023-03-29T23:08:56.319Z,25.40
2023-03-29T23:11:23.914Z,25.50
2023-03-29T23:13:53.664Z,25.50
2023-03-29T23:16:21.306Z,25.50
2023-03-29T23:18:48.884Z,25.50
2023-03-29T23:21:18.873Z,25.40
2023-03-29T23:23:46.517Z,25.30
2023-03-29T23:26:14.074Z,25.40
2023-03-29T23:28:42.870Z,25.50
2023-03-29T23:31:10.693Z,25.50
2023-03-29T23:33:38.334Z,25.60
2023-03-29T23:36:08.188Z,25.60
2023-03-29T23:38:35.773Z,25.70
2023-03-29T23:41:03.663Z,25.70
2023-03-29T23:43:33.032Z,25.70
2023-03-29T23:46:00.642Z,25.60
2023-03-29T23:48:28.356Z,25.70
2023-03-29T23:50:58.236Z,25.60
2023-03-29T23:53:25.820Z,25.70
2023-03-29T23:55:53.364Z,25.80
2023-03-29T23:58:23.367Z,25.70
